createdAt,value
2023-03-17T00:00:22.302Z,2.64
2023-03-17T00:03:08.107Z,2.45
2023-03-17T00:05:54.851Z,2.49
2023-03-17T00:08:40.279Z,2.68
2023-03-17T00:11:27.612Z,2.69
2023-03-17T00:14:13.315Z,2.89
2023-03-17T00:16:58.576Z,2.99
2023-03-17T00:19:44.099Z,2.86
2023-03-17T00:22:29.452Z,2.97
2023-03-17T00:25:34.314Z,2.96
2023-03-17T00:28:25.457Z,2.90
2023-03-17T00:31:16.609Z,2.68
2023-03-17T00:34:02.351Z,2.76
2023-03-17T00:36:49.590Z,2.49
2023-03-17T00:39:35.122Z,2.52
2023-03-17T00:42:20.314Z,2.48
2023-03-17T00:45:06.009Z,2.58
2023-03-17T00:47:54.191Z,2.62
2023-03-17T00:50:39.698Z,2.21
2023-03-17T00:53:24.978Z,2.31
2023-03-17T00:56:13.944Z,2.68
2023-03-17T00:58:59.165Z,2.55
2023-03-17T01:01:44.600Z,2.42
2023-03-17T01:04:29.940Z,2.36
2023-03-17T01:07:15.251Z,2.38
2023-03-17T01:10:00.668Z,2.47
2023-03-17T01:12:46.274Z,2.71
2023-03-17T01:15:33.432Z,2.48
2023-03-17T01:18:21.501Z,2.53
2023-03-17T01:21:06.792Z,2.63
2023-03-17T01:23:52.366Z,2.65
2023-03-17T01:26:38.662Z,2.88
2023-03-17T01:29:24.142Z,3.00
2023-03-17T01:32:09.847Z,3.11
2023-03-17T01:34:55.061Z,3.28
2023-03-17T01:37:40.499Z,2.74
2023-03-17T01:40:29.661Z,2.49
2023-03-17T01:43:24.997Z,2.59
2023-03-17T01:46:16.328Z,2.57
2023-03-17T01:49:23.476Z,2.58
2023-03-17T01:52:13.143Z,2.93
2023-03-17T01:55:03.410Z,3.07
2023-03-17T01:57:53.080Z,3.36
2023-03-17T02:00:39.455Z,3.48
2023-03-17T02:03:26.047Z,3.36
2023-03-17T02:06:12.425Z,3.33
2023-03-17T02:08:58.851Z,3.32
2023-03-17T02:11:45.524Z,3.23
2023-03-17T02:14:31.166Z,3.40
2023-03-17T02:17:16.542Z,2.91
2023-03-17T02:20:17.073Z,2.73
2023-03-17T02:23:03.115Z,1.87
2023-03-17T02:25:51.742Z,2.42
2023-03-17T02:28:37.211Z,2.76
2023-03-17T02:31:27.682Z,2.89
2023-03-17T02:34:12.934Z,3.02
2023-03-17T02:36:58.970Z,2.39
2023-03-17T02:39:45.200Z,2.93
2023-03-17T02:42:30.439Z,3.03
2023-03-17T02:45:17.680Z,3.09
2023-03-17T02:48:04.295Z,3.13
2023-03-17T02:50:50.002Z,3.01
2023-03-17T02:53:35.580Z,2.72
2023-03-17T02:56:20.691Z,2.89
2023-03-17T02:59:06.006Z,2.72
2023-03-17T03:01:51.279Z,2.95
2023-03-17T03:04:36.908Z,2.93
2023-03-17T03:07:22.387Z,2.92
2023-03-17T03:10:08.113Z,2.65
2023-03-17T03:12:53.542Z,2.54
2023-03-17T03:15:41.606Z,2.41
2023-03-17T03:18:27.207Z,1.69
2023-03-17T03:21:15.202Z,1.74
2023-03-17T03:24:00.422Z,1.70
2023-03-17T03:26:45.711Z,1.57
2023-03-17T03:29:31.428Z,2.01
2023-03-17T03:32:16.659Z,2.18
2023-03-17T03:35:02.174Z,2.09
2023-03-17T03:37:48.060Z,1.82
2023-03-17T03:40:34.362Z,1.87
2023-03-17T03:43:23.711Z,1.31
2023-03-17T03:46:09.315Z,1.89
2023-03-17T03:48:55.153Z,1.92
2023-03-17T03:51:40.700Z,2.04
2023-03-17T03:54:25.935Z,2.07
2023-03-17T03:57:11.363Z,1.64
2023-03-17T03:59:56.517Z,1.56
2023-03-17T04:02:42.181Z,1.30
2023-03-17T04:05:27.560Z,1.34
2023-03-17T04:08:12.860Z,1.36
2023-03-17T04:10:58.981Z,1.70
2023-03-17T04:13:44.274Z,1.50
2023-03-17T04:16:29.730Z,1.64
2023-03-17T04:19:14.711Z,1.75
2023-03-17T04:21:59.835Z,1.56
2023-03-17T04:24:45.379Z,1.61
2023-03-17T04:27:30.938Z,1.46
2023-03-17T04:30:17.089Z,1.56
2023-03-17T04:33:02.696Z,1.33
2023-03-17T04:35:48.204Z,0.95
2023-03-17T04:38:34.236Z,1.13
2023-03-17T04:41:19.752Z,1.22
2023-03-17T04:44:05.468Z,1.42
2023-03-17T04:46:51.201Z,1.39
2023-03-17T04:49:36.819Z,1.43
2023-03-17T04:52:22.259Z,1.45
2023-03-17T04:55:08.075Z,0.94
2023-03-17T04:57:53.303Z,1.04
2023-03-17T05:00:38.757Z,1.12
2023-03-17T05:03:27.265Z,1.19
2023-03-17T05:06:13.632Z,1.25
2023-03-17T05:08:58.832Z,1.13
2023-03-17T05:11:44.052Z,1.17
2023-03-17T05:14:29.332Z,1.21
2023-03-17T05:17:15.015Z,1.23
2023-03-17T05:20:00.374Z,1.19
2023-03-17T05:22:45.777Z,1.01
2023-03-17T05:25:31.021Z,1.04
2023-03-17T05:28:16.282Z,0.50
2023-03-17T05:31:01.509Z,0.99
2023-03-17T05:33:46.927Z,1.03
2023-03-17T05:36:32.334Z,0.51
2023-03-17T05:39:17.796Z,0.96
2023-03-17T05:42:03.414Z,0.75
2023-03-17T05:44:49.031Z,0.50
2023-03-17T05:47:35.059Z,0.82
2023-03-17T05:50:20.255Z,0.78
2023-03-17T05:53:05.781Z,0.70
2023-03-17T05:55:50.952Z,0.68
2023-03-17T05:58:36.255Z,0.69
2023-03-17T06:01:21.855Z,0.72
2023-03-17T06:04:07.183Z,0.68
2023-03-17T06:06:52.802Z,0.66
2023-03-17T06:09:38.260Z,0.53
2023-03-17T06:12:24.246Z,0.63
2023-03-17T06:15:09.802Z,0.70
2023-03-17T06:17:55.201Z,0.80
2023-03-17T06:20:40.520Z,0.91
2023-03-17T06:23:25.645Z,1.01
2023-03-17T06:26:11.204Z,1.13
2023-03-17T06:28:56.666Z,1.01
2023-03-17T06:31:41.935Z,0.74
2023-03-17T06:34:27.303Z,0.85
2023-03-17T06:37:12.719Z,0.89
2023-03-17T06:39:58.023Z,1.17
2023-03-17T06:42:43.827Z,0.99
2023-03-17T06:45:29.702Z,1.26
2023-03-17T06:48:15.443Z,1.67
2023-03-17T06:51:00.913Z,1.85
2023-03-17T06:53:46.150Z,2.15
2023-03-17T06:56:31.360Z,2.44
2023-03-17T06:59:17.057Z,2.78
2023-03-17T07:02:02.707Z,2.82
2023-03-17T07:04:48.171Z,3.02
2023-03-17T07:07:33.899Z,3.13
2023-03-17T07:10:19.367Z,3.38
2023-03-17T07:13:04.734Z,3.65
2023-03-17T07:15:50.828Z,3.73
2023-03-17T07:18:36.005Z,3.84
2023-03-17T07:21:21.662Z,3.81
2023-03-17T07:24:06.838Z,3.80
2023-03-17T07:26:52.133Z,3.80
2023-03-17T07:29:37.457Z,4.06
2023-03-17T07:32:22.907Z,4.07
2023-03-17T07:35:08.280Z,4.80
2023-03-17T07:37:53.415Z,4.92
2023-03-17T07:40:38.908Z,4.73
2023-03-17T07:43:24.072Z,4.64
2023-03-17T07:46:09.640Z,4.42
2023-03-17T07:48:55.486Z,4.10
2023-03-17T07:51:41.059Z,4.13
2023-03-17T07:54:28.471Z,4.22
2023-03-17T07:57:13.977Z,4.66
2023-03-17T07:59:59.142Z,5.11
2023-03-17T08:02:44.393Z,5.11
2023-03-17T08:05:29.800Z,5.46
2023-03-17T08:08:15.001Z,5.47
2023-03-17T08:11:04.957Z,5.26
2023-03-17T08:13:50.452Z,5.91
2023-03-17T08:16:35.915Z,6.24
2023-03-17T08:19:21.835Z,6.35
2023-03-17T08:22:07.441Z,6.64
2023-03-17T08:24:52.560Z,6.83
2023-03-17T08:27:37.685Z,6.97
2023-03-17T08:30:23.259Z,7.22
2023-03-17T08:33:09.259Z,7.14
2023-03-17T08:35:54.424Z,7.63
2023-03-17T08:38:41.356Z,7.60
2023-03-17T08:41:27.845Z,8.06
2023-03-17T08:44:13.581Z,8.08
2023-03-17T08:46:59.118Z,8.43
2023-03-17T08:49:44.224Z,8.32
2023-03-17T08:52:29.859Z,8.76
2023-03-17T08:55:15.879Z,9.20
2023-03-17T08:58:01.093Z,8.99
2023-03-17T09:00:46.815Z,9.06
2023-03-17T09:03:33.806Z,9.50
2023-03-17T09:06:19.510Z,9.23
2023-03-17T09:09:05.016Z,9.45
2023-03-17T09:11:50.413Z,9.11
2023-03-17T09:14:43.521Z,9.41
2023-03-17T09:17:29.265Z,9.33
2023-03-17T09:20:14.742Z,9.18
2023-03-17T09:23:00.156Z,9.38
2023-03-17T09:25:45.733Z,9.66
2023-03-17T09:28:31.128Z,9.70
2023-03-17T09:31:16.614Z,9.52
2023-03-17T09:34:02.663Z,9.81
2023-03-17T09:36:48.722Z,9.44
2023-03-17T09:39:34.004Z,10.04
2023-03-17T09:42:26.588Z,10.09
2023-03-17T09:45:24.534Z,10.41
2023-03-17T09:48:40.620Z,10.60
2023-03-17T09:51:26.276Z,11.10
2023-03-17T09:54:16.215Z,11.08
2023-03-17T09:57:16.533Z,10.98
2023-03-17T10:00:13.044Z,11.30
2023-03-17T10:02:59.001Z,10.68
2023-03-17T10:05:44.828Z,11.32
2023-03-17T10:08:33.239Z,11.20
2023-03-17T10:11:24.375Z,11.18
2023-03-17T10:14:27.607Z,10.54
2023-03-17T10:17:13.378Z,10.35
2023-03-17T10:20:05.392Z,10.89
2023-03-17T10:22:59.216Z,10.92
2023-03-17T10:25:44.874Z,10.97
2023-03-17T10:28:32.814Z,11.01
2023-03-17T10:31:26.648Z,10.92
2023-03-17T10:34:14.834Z,11.34
2023-03-17T10:37:07.378Z,11.59
2023-03-17T10:39:56.630Z,11.69
2023-03-17T10:42:51.937Z,11.83
2023-03-17T10:45:42.231Z,12.03
2023-03-17T10:48:36.963Z,11.85
2023-03-17T10:51:34.441Z,11.59
2023-03-17T10:54:22.638Z,11.40
2023-03-17T10:57:08.350Z,11.38
2023-03-17T10:59:59.522Z,11.31
2023-03-17T11:02:49.251Z,10.53
2023-03-17T11:05:34.628Z,10.59
2023-03-17T11:08:20.129Z,10.63
2023-03-17T11:11:21.338Z,10.63
2023-03-17T11:14:11.447Z,10.77
2023-03-17T11:17:13.615Z,11.02
2023-03-17T11:20:05.148Z,11.04
2023-03-17T11:23:23.890Z,10.76
2023-03-17T11:26:24.661Z,10.82
2023-03-17T11:29:37.679Z,11.08
2023-03-17T11:32:41.418Z,11.38
2023-03-17T11:35:32.769Z,11.63
2023-03-17T11:38:24.398Z,12.06
2023-03-17T11:41:31.425Z,12.04
2023-03-17T11:44:38.716Z,11.80
2023-03-17T11:47:45.163Z,11.57
2023-03-17T11:51:05.812Z,12.13
2023-03-17T11:53:59.850Z,12.34
2023-03-17T11:57:00.935Z,12.16
2023-03-17T11:59:52.281Z,12.19
2023-03-17T12:02:49.382Z,12.31
2023-03-17T12:05:35.475Z,12.47
2023-03-17T12:08:38.686Z,12.71
2023-03-17T12:11:28.980Z,12.86
2023-03-17T12:14:36.386Z,13.14
2023-03-17T12:17:34.392Z,13.23
2023-03-17T12:20:55.145Z,13.39
2023-03-17T12:23:52.333Z,13.73
2023-03-17T12:27:07.307Z,13.66
2023-03-17T12:30:00.446Z,13.77
2023-03-17T12:33:30.941Z,13.66
2023-03-17T12:36:17.937Z,13.79
2023-03-17T12:39:13.742Z,13.59
2023-03-17T12:42:10.856Z,13.55
2023-03-17T12:45:23.390Z,13.61
2023-03-17T12:48:23.796Z,13.58
2023-03-17T12:51:46.736Z,13.78
2023-03-17T12:54:37.473Z,13.71
2023-03-17T12:57:30.030Z,13.77
2023-03-17T13:00:23.230Z,13.79
2023-03-17T13:03:14.254Z,14.20
2023-03-17T13:06:06.200Z,13.89
2023-03-17T13:08:53.104Z,14.10
2023-03-17T13:11:38.422Z,14.14
2023-03-17T13:14:42.731Z,14.22
2023-03-17T13:17:28.081Z,13.99
2023-03-17T13:20:17.434Z,14.10
2023-03-17T13:23:16.145Z,14.07
2023-03-17T13:26:01.647Z,14.09
2023-03-17T13:28:51.227Z,14.09
2023-03-17T13:31:37.341Z,14.05
2023-03-17T13:34:22.487Z,14.09
2023-03-17T13:37:29.287Z,13.90
2023-03-17T13:40:22.911Z,13.73
2023-03-17T13:43:17.504Z,13.63
2023-03-17T13:46:25.878Z,13.45
2023-03-17T13:49:20.286Z,13.38
2023-03-17T13:52:15.399Z,13.34
2023-03-17T13:55:18.648Z,13.28
2023-03-17T13:58:08.214Z,13.16
2023-03-17T14:01:00.552Z,13.21
2023-03-17T14:03:50.852Z,13.17
2023-03-17T14:06:38.183Z,13.61
2023-03-17T14:09:43.522Z,13.69
2023-03-17T14:12:46.714Z,13.91
2023-03-17T14:15:45.278Z,13.90
2023-03-17T14:18:33.709Z,13.59
2023-03-17T14:21:24.954Z,13.62
2023-03-17T14:24:29.920Z,13.85
2023-03-17T14:27:14.933Z,13.94
2023-03-17T14:30:06.753Z,13.88
2023-03-17T14:33:20.897Z,13.68
2023-03-17T14:36:09.214Z,13.78
2023-03-17T14:38:56.749Z,13.60
2023-03-17T14:41:42.197Z,13.48
2023-03-17T14:44:28.019Z,13.48
2023-03-17T14:47:39.712Z,13.39
2023-03-17T14:50:29.562Z,13.19
2023-03-17T14:53:15.082Z,12.71
2023-03-17T14:56:00.730Z,12.56
2023-03-17T14:58:49.892Z,12.74
2023-03-17T15:01:44.361Z,12.74
2023-03-17T15:04:35.353Z,12.72
2023-03-17T15:07:39.276Z,12.89
2023-03-17T15:10:27.482Z,12.95
2023-03-17T15:13:13.600Z,13.16
2023-03-17T15:15:59.190Z,13.10
2023-03-17T15:18:45.059Z,12.94
2023-03-17T15:21:43.500Z,12.73
2023-03-17T15:24:40.045Z,12.54
2023-03-17T15:27:25.810Z,12.34
2023-03-17T15:30:12.290Z,12.16
2023-03-17T15:33:01.209Z,12.26
2023-03-17T15:35:46.313Z,12.27
2023-03-17T15:38:32.173Z,12.32
2023-03-17T15:41:17.702Z,12.38
2023-03-17T15:44:04.199Z,12.71
2023-03-17T15:46:50.380Z,12.81
2023-03-17T15:49:35.694Z,12.84
2023-03-17T15:52:23.860Z,13.15
2023-03-17T15:55:16.964Z,13.31
2023-03-17T15:58:02.330Z,13.32
2023-03-17T16:00:51.419Z,13.03
2023-03-17T16:03:36.714Z,13.10
2023-03-17T16:06:24.572Z,13.23
2023-03-17T16:09:15.771Z,13.01
2023-03-17T16:12:00.899Z,12.86
2023-03-17T16:14:45.945Z,12.52
2023-03-17T16:17:33.062Z,12.79
2023-03-17T16:20:23.236Z,12.22
2023-03-17T16:23:11.595Z,12.13
2023-03-17T16:26:04.620Z,11.68
2023-03-17T16:28:57.651Z,11.51
2023-03-17T16:31:46.129Z,11.32
2023-03-17T16:34:31.259Z,11.44
2023-03-17T16:37:16.785Z,11.67
2023-03-17T16:40:02.010Z,11.99
2023-03-17T16:42:48.347Z,11.38
2023-03-17T16:45:34.825Z,11.33
2023-03-17T16:48:20.443Z,11.30
2023-03-17T16:51:07.396Z,11.54
2023-03-17T16:53:52.776Z,11.77
2023-03-17T16:56:40.555Z,11.81
2023-03-17T16:59:26.386Z,11.65
2023-03-17T17:02:15.975Z,11.43
2023-03-17T17:05:01.167Z,11.19
2023-03-17T17:07:47.990Z,11.52
2023-03-17T17:10:34.547Z,11.53
2023-03-17T17:13:19.742Z,11.44
2023-03-17T17:16:05.538Z,11.41
2023-03-17T17:18:51.120Z,11.33
2023-03-17T17:21:36.267Z,11.19
2023-03-17T17:24:21.690Z,11.13
2023-03-17T17:27:06.962Z,10.86
2023-03-17T17:29:52.321Z,10.48
2023-03-17T17:32:37.709Z,10.63
2023-03-17T17:35:24.000Z,10.67
2023-03-17T17:38:24.636Z,10.68
2023-03-17T17:41:12.152Z,10.37
2023-03-17T17:43:57.493Z,10.69
2023-03-17T17:46:42.673Z,10.74
2023-03-17T17:49:27.865Z,10.72
2023-03-17T17:52:13.162Z,10.73
2023-03-17T17:54:58.703Z,10.83
2023-03-17T17:57:44.275Z,10.81
2023-03-17T18:00:29.729Z,10.88
2023-03-17T18:03:15.249Z,10.35
2023-03-17T18:06:01.740Z,10.71
2023-03-17T18:08:49.110Z,10.67
2023-03-17T18:11:34.672Z,10.63
2023-03-17T18:14:20.610Z,10.58
2023-03-17T18:17:05.873Z,10.53
2023-03-17T18:19:52.435Z,10.56
2023-03-17T18:22:37.903Z,10.27
2023-03-17T18:25:23.735Z,9.92
2023-03-17T18:28:08.893Z,10.06
2023-03-17T18:30:54.802Z,10.35
2023-03-17T18:33:43.435Z,10.23
2023-03-17T18:36:29.754Z,10.16
2023-03-17T18:39:16.158Z,9.79
2023-03-17T18:42:01.748Z,10.08
2023-03-17T18:44:49.566Z,10.12
2023-03-17T18:47:34.666Z,10.16
2023-03-17T18:50:21.258Z,10.15
2023-03-17T18:53:06.855Z,10.14
2023-03-17T18:55:52.201Z,10.10
2023-03-17T18:58:37.244Z,9.91
2023-03-17T19:01:23.276Z,9.67
2023-03-17T19:04:08.887Z,9.56
2023-03-17T19:06:54.166Z,9.56
2023-03-17T19:09:39.726Z,9.43
2023-03-17T19:12:25.206Z,9.63
2023-03-17T19:15:11.385Z,9.80
2023-03-17T19:17:56.779Z,9.86
2023-03-17T19:20:42.529Z,9.71
2023-03-17T19:23:28.647Z,9.92
2023-03-17T19:26:14.340Z,9.86
2023-03-17T19:28:59.782Z,9.88
2023-03-17T19:31:48.431Z,9.90
2023-03-17T19:34:38.388Z,9.80
2023-03-17T19:37:24.139Z,9.75
2023-03-17T19:40:10.699Z,9.36
2023-03-17T19:42:56.585Z,9.66
2023-03-17T19:45:41.887Z,9.56
2023-03-17T19:48:27.302Z,9.51
2023-03-17T19:51:12.929Z,9.46
2023-03-17T19:53:58.137Z,9.44
2023-03-17T19:56:44.436Z,8.87
2023-03-17T19:59:32.090Z,9.31
2023-03-17T20:02:19.540Z,9.28
2023-03-17T20:05:05.812Z,9.23
2023-03-17T20:07:50.879Z,9.20
2023-03-17T20:10:36.228Z,9.13
2023-03-17T20:13:22.189Z,8.90
2023-03-17T20:16:08.494Z,8.97
2023-03-17T20:18:54.056Z,8.95
2023-03-17T20:21:39.258Z,8.81
2023-03-17T20:24:24.898Z,8.78
2023-03-17T20:27:10.708Z,8.33
2023-03-17T20:29:56.266Z,8.72
2023-03-17T20:32:41.644Z,7.19
2023-03-17T20:35:26.746Z,8.62
2023-03-17T20:38:12.199Z,8.61
2023-03-17T20:41:07.758Z,8.56
2023-03-17T20:43:53.143Z,8.42
2023-03-17T20:46:38.260Z,8.46
2023-03-17T20:49:23.730Z,8.02
2023-03-17T20:52:11.688Z,8.40
2023-03-17T20:54:57.694Z,8.38
2023-03-17T20:57:45.732Z,8.35
2023-03-17T21:00:32.006Z,8.04
2023-03-17T21:03:17.353Z,8.30
2023-03-17T21:06:02.968Z,8.15
2023-03-17T21:08:49.812Z,7.97
2023-03-17T21:11:36.707Z,8.02
2023-03-17T21:14:22.208Z,8.22
2023-03-17T21:17:09.869Z,8.22
2023-03-17T21:19:55.345Z,8.15
2023-03-17T21:22:40.927Z,7.90
2023-03-17T21:25:26.283Z,8.01
2023-03-17T21:28:11.588Z,7.96
2023-03-17T21:30:57.700Z,7.93
2023-03-17T21:33:43.566Z,7.76
2023-03-17T21:36:28.832Z,7.90
2023-03-17T21:39:14.024Z,7.90
2023-03-17T21:41:59.902Z,7.47
2023-03-17T21:44:45.519Z,7.81
2023-03-17T21:47:31.453Z,7.85
2023-03-17T21:50:18.801Z,7.84
2023-03-17T21:53:05.667Z,7.82
2023-03-17T21:55:52.134Z,7.81
2023-03-17T21:58:37.679Z,7.76
2023-03-17T22:01:23.800Z,7.73
2023-03-17T22:04:10.279Z,7.77
2023-03-17T22:06:55.538Z,7.79
2023-03-17T22:09:42.017Z,7.82
2023-03-17T22:12:28.219Z,7.87
2023-03-17T22:15:13.581Z,7.93
2023-03-17T22:17:58.780Z,7.95
2023-03-17T22:20:44.381Z,7.90
2023-03-17T22:23:30.459Z,7.85
2023-03-17T22:26:19.128Z,7.86
2023-03-17T22:29:04.465Z,7.79
2023-03-17T22:31:50.136Z,7.73
2023-03-17T22:34:35.847Z,7.69
2023-03-17T22:37:21.301Z,7.56
2023-03-17T22:40:07.585Z,7.25
2023-03-17T22:42:55.641Z,7.56
2023-03-17T22:45:41.203Z,7.66
2023-03-17T22:48:26.415Z,7.70
2023-03-17T22:51:15.065Z,7.74
2023-03-17T22:54:00.546Z,7.43
2023-03-17T22:56:45.986Z,7.72
2023-03-17T22:59:31.450Z,7.73
2023-03-17T23:02:18.555Z,7.45
2023-03-17T23:05:04.574Z,7.48
2023-03-17T23:07:51.402Z,7.94
2023-03-17T23:10:38.832Z,7.86
2023-03-17T23:13:24.285Z,7.94
2023-03-17T23:16:09.841Z,7.97
2023-03-17T23:18:55.518Z,7.91
2023-03-17T23:21:40.935Z,7.73
2023-03-17T23:24:26.143Z,7.69
2023-03-17T23:27:11.802Z,7.41
2023-03-17T23:29:57.274Z,7.69
2023-03-17T23:32:42.520Z,7.71
2023-03-17T23:35:28.069Z,7.73
2023-03-17T23:38:13.457Z,7.73
2023-03-17T23:40:59.268Z,7.71
2023-03-17T23:43:45.101Z,7.70
2023-03-17T23:46:31.378Z,7.67
2023-03-17T23:49:17.173Z,7.50
2023-03-17T23:52:02.443Z,7.59
2023-03-17T23:54:48.496Z,7.54
2023-03-17T23:57:34.516Z,7.49
